createdAt,value
2022-08-17T00:02:26.341Z,15.10
2022-08-17T00:05:29.262Z,15.10
2022-08-17T00:08:33.304Z,15.00
2022-08-17T00:11:36.364Z,15.00
2022-08-17T00:14:37.276Z,15.00
2022-08-17T00:17:38.212Z,15.00
2022-08-17T00:20:39.267Z,15.00
2022-08-17T00:23:47.771Z,14.90
2022-08-17T00:26:51.425Z,14.90
2022-08-17T00:29:52.261Z,14.90
2022-08-17T00:33:23.454Z,14.90
2022-08-17T00:36:20.207Z,14.90
2022-08-17T00:39:21.232Z,14.90
2022-08-17T00:42:33.240Z,14.80
2022-08-17T00:45:34.386Z,14.80
2022-08-17T00:48:35.212Z,14.80
2022-08-17T00:51:48.430Z,14.80
2022-08-17T00:54:53.303Z,14.80
2022-08-17T00:57:58.248Z,14.80
2022-08-17T01:01:01.377Z,14.80
2022-08-17T01:04:04.242Z,14.80
2022-08-17T01:07:06.323Z,14.70
2022-08-17T01:10:08.407Z,14.70
2022-08-17T01:13:30.317Z,14.70
2022-08-17T01:16:39.226Z,14.70
2022-08-17T01:19:47.427Z,14.70
2022-08-17T01:22:48.416Z,14.60
2022-08-17T01:25:50.292Z,14.70
2022-08-17T01:28:55.471Z,14.60
2022-08-17T01:32:04.409Z,14.70
2022-08-17T01:35:07.278Z,14.60
2022-08-17T01:38:08.313Z,14.70
2022-08-17T01:41:14.320Z,14.60
2022-08-17T01:44:18.328Z,14.60
2022-08-17T01:47:19.326Z,14.60
2022-08-17T01:50:24.280Z,14.60
2022-08-17T01:53:32.401Z,14.50
2022-08-17T01:56:36.354Z,14.50
2022-08-17T01:59:37.327Z,14.50
2022-08-17T02:02:38.311Z,14.50
2022-08-17T02:05:39.345Z,14.50
2022-08-17T02:09:02.871Z,14.50
2022-08-17T02:12:38.080Z,14.50
2022-08-17T02:15:25.314Z,14.50
2022-08-17T02:18:28.336Z,14.50
2022-08-17T02:21:29.325Z,14.50
2022-08-17T02:24:59.328Z,14.50
2022-08-17T02:27:56.282Z,14.50
2022-08-17T02:31:01.582Z,14.50
2022-08-17T02:34:04.429Z,14.50
2022-08-17T02:37:06.369Z,14.50
2022-08-17T02:40:08.471Z,14.50
2022-08-17T02:43:09.371Z,14.50
2022-08-17T02:46:10.288Z,14.50
2022-08-17T02:49:12.305Z,14.40
2022-08-17T02:52:17.449Z,14.40
2022-08-17T02:55:42.364Z,14.40
2022-08-17T02:58:43.342Z,14.40
2022-08-17T03:01:44.445Z,14.40
2022-08-17T03:04:45.513Z,14.30
2022-08-17T03:07:46.289Z,14.30
2022-08-17T03:10:47.462Z,14.30
2022-08-17T03:13:48.294Z,14.30
2022-08-17T03:16:49.369Z,14.30
2022-08-17T03:19:50.358Z,14.30
2022-08-17T03:23:01.823Z,14.30
2022-08-17T03:26:03.344Z,14.30
2022-08-17T03:29:04.386Z,14.30
2022-08-17T03:32:05.464Z,14.20
2022-08-17T03:35:11.325Z,14.30
2022-08-17T03:38:15.150Z,14.20
2022-08-17T03:41:18.334Z,14.20
2022-08-17T03:44:19.316Z,14.20
2022-08-17T03:47:38.401Z,14.20
2022-08-17T03:51:00.347Z,14.20
2022-08-17T03:54:22.414Z,14.20
2022-08-17T03:57:24.397Z,14.20
2022-08-17T04:00:26.357Z,14.20
2022-08-17T04:03:27.385Z,14.20
2022-08-17T04:06:28.332Z,14.20
2022-08-17T04:09:29.388Z,14.20
2022-08-17T04:12:37.375Z,14.20
2022-08-17T04:15:40.416Z,14.30
2022-08-17T04:18:41.396Z,14.30
2022-08-17T04:21:42.348Z,14.30
2022-08-17T04:24:43.395Z,14.30
2022-08-17T04:27:44.405Z,14.30
2022-08-17T04:30:48.387Z,14.30
2022-08-17T04:33:50.423Z,14.30
2022-08-17T04:36:51.409Z,14.30
2022-08-17T04:40:13.457Z,14.30
2022-08-17T04:43:29.431Z,14.30
2022-08-17T04:46:33.379Z,14.30
2022-08-17T04:49:34.409Z,14.30
2022-08-17T04:52:43.314Z,14.30
2022-08-17T04:55:44.426Z,14.30
2022-08-17T04:58:45.421Z,14.30
2022-08-17T05:01:50.431Z,14.30
2022-08-17T05:04:51.442Z,14.30
2022-08-17T05:07:52.380Z,14.30
2022-08-17T05:10:53.363Z,14.30
2022-08-17T05:13:56.428Z,14.30
2022-08-17T05:16:57.523Z,14.30
2022-08-17T05:19:58.380Z,14.30
2022-08-17T05:23:08.375Z,14.30
2022-08-17T05:26:10.278Z,14.30
2022-08-17T05:29:16.388Z,14.30
2022-08-17T05:32:39.027Z,14.30
2022-08-17T05:35:42.553Z,14.30
2022-08-17T05:38:44.399Z,14.30
2022-08-17T05:41:45.483Z,14.30
2022-08-17T05:44:46.483Z,14.30
2022-08-17T05:47:47.415Z,14.30
2022-08-17T05:51:04.457Z,14.30
2022-08-17T05:54:37.465Z,14.30
2022-08-17T05:57:57.420Z,14.40
2022-08-17T06:01:27.494Z,14.40
2022-08-17T06:04:50.474Z,14.40
2022-08-17T06:08:13.448Z,14.40
2022-08-17T06:11:20.578Z,14.40
2022-08-17T06:14:51.479Z,14.40
2022-08-17T06:17:52.424Z,14.40
2022-08-17T06:21:05.426Z,14.40
2022-08-17T06:24:12.432Z,14.50
2022-08-17T06:27:37.483Z,14.50
2022-08-17T06:30:59.874Z,14.50
2022-08-17T06:33:55.607Z,14.50
2022-08-17T06:37:10.893Z,14.50
2022-08-17T06:40:30.484Z,14.40
2022-08-17T06:43:59.499Z,14.50
2022-08-17T06:47:08.432Z,14.50
2022-08-17T06:50:48.630Z,14.50
2022-08-17T06:53:49.514Z,14.50
2022-08-17T06:57:00.464Z,14.40
2022-08-17T07:00:27.570Z,14.50
2022-08-17T07:04:11.596Z,14.50
2022-08-17T07:07:43.501Z,14.50
2022-08-17T07:10:59.501Z,14.50
2022-08-17T07:14:23.504Z,14.50
2022-08-17T07:17:46.934Z,14.50
2022-08-17T07:20:49.522Z,14.60
2022-08-17T07:24:26.371Z,14.60
2022-08-17T07:27:38.673Z,14.60
2022-08-17T07:30:47.230Z,14.70
2022-08-17T07:33:49.508Z,14.80
2022-08-17T07:36:50.576Z,14.80
2022-08-17T07:39:59.147Z,14.80
2022-08-17T07:43:23.259Z,14.80
2022-08-17T07:47:00.514Z,14.80
2022-08-17T07:50:01.550Z,14.80
2022-08-17T07:53:02.486Z,14.80
2022-08-17T07:56:04.473Z,14.80
2022-08-17T07:59:33.268Z,14.80
2022-08-17T08:02:49.648Z,14.80
2022-08-17T08:06:08.470Z,14.80
2022-08-17T08:09:10.491Z,14.90
2022-08-17T08:12:11.559Z,14.80
2022-08-17T08:15:32.566Z,14.80
2022-08-17T08:18:38.683Z,14.80
2022-08-17T08:22:12.504Z,14.80
2022-08-17T08:25:34.577Z,14.90
2022-08-17T08:28:46.542Z,15.00
2022-08-17T08:32:19.560Z,15.00
2022-08-17T08:35:48.533Z,15.00
2022-08-17T08:39:19.492Z,14.90
2022-08-17T08:42:39.578Z,14.90
2022-08-17T08:45:59.583Z,14.90
2022-08-17T08:50:02.518Z,15.00
2022-08-17T08:53:13.585Z,15.10
2022-08-17T08:56:25.683Z,15.10
2022-08-17T08:59:35.603Z,15.10
2022-08-17T09:03:02.622Z,15.20
2022-08-17T09:06:38.968Z,15.30
2022-08-17T09:10:10.539Z,15.30
2022-08-17T09:13:33.766Z,15.40
2022-08-17T09:16:46.686Z,15.60
2022-08-17T09:19:59.745Z,15.80
2022-08-17T09:23:10.547Z,16.00
2022-08-17T09:26:31.657Z,15.90
2022-08-17T09:29:32.620Z,15.90
2022-08-17T09:32:49.623Z,15.90
2022-08-17T09:35:57.584Z,15.90
2022-08-17T09:39:01.699Z,16.00
2022-08-17T09:42:22.559Z,16.10
2022-08-17T09:45:41.659Z,16.20
2022-08-17T09:48:57.553Z,16.10
2022-08-17T09:52:03.618Z,16.10
2022-08-17T09:55:07.599Z,16.10
2022-08-17T09:58:43.599Z,16.20
2022-08-17T10:02:32.615Z,16.20
2022-08-17T10:05:56.412Z,16.30
2022-08-17T10:09:16.593Z,16.50
2022-08-17T10:12:47.022Z,16.70
2022-08-17T10:16:07.745Z,16.80
2022-08-17T10:19:29.591Z,16.80
2022-08-17T10:22:59.782Z,17.00
2022-08-17T10:26:21.818Z,17.20
2022-08-17T10:29:29.578Z,17.50
2022-08-17T10:32:52.666Z,17.60
2022-08-17T10:36:10.921Z,17.60
2022-08-17T10:39:22.686Z,17.50
2022-08-17T10:42:37.579Z,17.40
2022-08-17T10:45:42.580Z,17.40
2022-08-17T10:48:50.642Z,17.30
2022-08-17T10:51:54.649Z,17.20
2022-08-17T10:55:06.725Z,17.30
2022-08-17T10:58:34.645Z,17.40
2022-08-17T11:01:55.729Z,17.40
2022-08-17T11:05:19.662Z,17.50
2022-08-17T11:08:52.650Z,17.60
2022-08-17T11:12:13.934Z,17.80
2022-08-17T11:15:26.632Z,17.80
2022-08-17T11:18:41.605Z,17.80
2022-08-17T11:21:44.732Z,17.80
2022-08-17T11:24:57.765Z,17.70
2022-08-17T11:28:03.778Z,17.60
2022-08-17T11:31:06.926Z,17.40
2022-08-17T11:34:18.621Z,17.30
2022-08-17T11:37:53.658Z,17.20
2022-08-17T11:41:13.660Z,17.20
2022-08-17T11:44:17.700Z,17.20
2022-08-17T11:47:30.686Z,17.20
2022-08-17T11:51:01.844Z,17.10
2022-08-17T11:54:31.159Z,17.20
2022-08-17T11:57:41.863Z,17.10
2022-08-17T12:01:16.658Z,17.20
2022-08-17T12:04:40.757Z,17.30
2022-08-17T12:07:42.691Z,17.30
2022-08-17T12:10:45.728Z,17.30
2022-08-17T12:13:54.718Z,17.30
2022-08-17T12:16:57.715Z,17.30
2022-08-17T12:19:59.691Z,17.40
2022-08-17T12:23:36.686Z,17.50
2022-08-17T12:26:50.711Z,17.70
2022-08-17T12:29:56.827Z,17.80
2022-08-17T12:32:58.653Z,17.90
2022-08-17T12:35:59.871Z,17.80
2022-08-17T12:39:14.114Z,18.00
2022-08-17T12:42:15.690Z,18.00
2022-08-17T12:45:36.728Z,18.10
2022-08-17T12:48:40.825Z,18.30
2022-08-17T12:52:01.690Z,18.40
2022-08-17T12:55:27.902Z,18.50
2022-08-17T12:58:38.765Z,18.50
2022-08-17T13:01:42.821Z,18.60
2022-08-17T13:04:45.778Z,18.70
2022-08-17T13:07:54.704Z,18.70
2022-08-17T13:10:56.763Z,18.60
2022-08-17T13:14:01.719Z,18.50
2022-08-17T13:17:14.731Z,18.60
2022-08-17T13:20:17.699Z,18.90
2022-08-17T13:23:23.677Z,19.20
2022-08-17T13:26:33.870Z,19.30
2022-08-17T13:29:39.750Z,19.60
2022-08-17T13:32:55.907Z,19.80
2022-08-17T13:35:59.678Z,19.80
2022-08-17T13:39:00.734Z,19.80
2022-08-17T13:42:04.711Z,19.80
2022-08-17T13:45:34.230Z,19.80
2022-08-17T13:48:22.715Z,19.80
2022-08-17T13:51:37.779Z,19.80
2022-08-17T13:54:45.798Z,19.70
2022-08-17T13:57:47.867Z,19.50
2022-08-17T14:00:49.708Z,19.40
2022-08-17T14:03:51.421Z,19.40
2022-08-17T14:07:05.864Z,19.40
2022-08-17T14:10:07.779Z,19.40
2022-08-17T14:13:09.840Z,19.40
2022-08-17T14:16:10.737Z,19.40
2022-08-17T14:19:11.889Z,19.30
2022-08-17T14:22:12.717Z,19.20
2022-08-17T14:25:14.899Z,19.20
2022-08-17T14:28:15.776Z,19.10
2022-08-17T14:31:16.839Z,19.00
2022-08-17T14:34:17.749Z,18.90
2022-08-17T14:37:18.800Z,18.80
2022-08-17T14:40:23.824Z,18.80
2022-08-17T14:43:24.772Z,18.80
2022-08-17T14:46:25.810Z,18.80
2022-08-17T14:49:26.726Z,18.70
2022-08-17T14:52:30.898Z,18.70
2022-08-17T14:55:31.785Z,18.70
2022-08-17T14:58:32.814Z,18.70
2022-08-17T15:01:36.038Z,18.70
2022-08-17T15:04:38.979Z,18.60
2022-08-17T15:07:42.770Z,18.50
2022-08-17T15:10:43.840Z,18.40
2022-08-17T15:13:52.365Z,18.50
2022-08-17T15:16:53.951Z,18.40
2022-08-17T15:19:54.762Z,18.40
2022-08-17T15:22:57.895Z,18.50
2022-08-17T15:26:00.845Z,18.50
2022-08-17T15:29:02.836Z,18.60
2022-08-17T15:32:03.781Z,18.50
2022-08-17T15:35:09.953Z,18.50
2022-08-17T15:38:17.835Z,18.60
2022-08-17T15:41:29.773Z,18.60
2022-08-17T15:44:34.990Z,18.70
2022-08-17T15:47:35.817Z,18.80
2022-08-17T15:50:36.889Z,18.80
2022-08-17T15:53:37.847Z,18.90
2022-08-17T15:56:39.805Z,18.80
2022-08-17T15:59:40.927Z,18.80
2022-08-17T16:03:15.265Z,18.70
2022-08-17T16:06:05.856Z,18.60
2022-08-17T16:09:09.837Z,18.50
2022-08-17T16:12:10.802Z,18.50
2022-08-17T16:15:12.007Z,18.50
2022-08-17T16:18:12.850Z,18.50
2022-08-17T16:21:43.194Z,18.50
2022-08-17T16:24:47.850Z,18.50
2022-08-17T16:27:59.877Z,18.50
2022-08-17T16:31:01.007Z,18.40
2022-08-17T16:34:17.505Z,18.50
2022-08-17T16:37:19.819Z,18.40
2022-08-17T16:40:21.875Z,18.40
2022-08-17T16:43:23.834Z,18.40
2022-08-17T16:46:24.929Z,18.40
2022-08-17T16:49:37.020Z,18.40
2022-08-17T16:52:40.870Z,18.40
2022-08-17T16:55:34.853Z,18.40
2022-08-17T16:58:35.843Z,18.40
2022-08-17T17:01:37.870Z,18.40
2022-08-17T17:04:39.886Z,18.30
2022-08-17T17:07:55.931Z,18.30
2022-08-17T17:11:04.889Z,18.40
2022-08-17T17:14:12.837Z,18.40
2022-08-17T17:17:41.922Z,18.40
2022-08-17T17:20:51.922Z,18.40
2022-08-17T17:24:13.922Z,18.40
2022-08-17T17:27:14.914Z,18.40
2022-08-17T17:30:44.862Z,18.30
2022-08-17T17:33:54.968Z,18.30
2022-08-17T17:37:02.906Z,18.30
2022-08-17T17:40:08.863Z,18.30
2022-08-17T17:43:37.737Z,18.30
2022-08-17T17:46:51.928Z,18.30
2022-08-17T17:49:56.877Z,18.30
2022-08-17T17:53:05.856Z,18.20
2022-08-17T17:56:43.922Z,18.20
2022-08-17T18:00:13.951Z,18.10
2022-08-17T18:03:34.930Z,18.10
2022-08-17T18:07:18.948Z,18.00
2022-08-17T18:10:53.366Z,18.00
2022-08-17T18:14:08.889Z,18.00
2022-08-17T18:17:12.929Z,17.90
2022-08-17T18:20:18.034Z,18.00
2022-08-17T18:28:51.995Z,17.90
2022-08-17T18:31:52.922Z,17.90
2022-08-17T18:34:53.893Z,17.90
2022-08-17T18:38:05.946Z,17.80
2022-08-17T18:41:13.938Z,17.90
2022-08-17T18:44:29.937Z,17.80
2022-08-17T18:47:39.980Z,17.80
2022-08-17T18:50:51.529Z,17.90
2022-08-17T18:58:33.969Z,17.80
2022-08-17T19:01:46.983Z,17.80
2022-08-17T19:05:37.947Z,17.80
2022-08-17T19:08:41.944Z,17.70
2022-08-17T19:11:46.958Z,17.70
2022-08-17T19:14:49.051Z,17.60
2022-08-17T19:18:31.967Z,17.60
2022-08-17T19:25:03.616Z,17.50
2022-08-17T19:28:34.945Z,17.50
2022-08-17T19:31:42.034Z,17.50
2022-08-17T19:34:51.097Z,17.40
2022-08-17T19:37:56.096Z,17.40
2022-08-17T19:41:24.015Z,17.40
2022-08-17T19:44:53.822Z,17.40
2022-08-17T19:48:10.166Z,17.30
2022-08-17T19:51:25.973Z,17.30
2022-08-17T19:54:29.067Z,17.30
2022-08-17T19:57:46.291Z,17.30
2022-08-17T20:00:55.012Z,17.30
2022-08-17T20:04:11.197Z,17.20
2022-08-17T20:07:22.117Z,17.20
2022-08-17T20:10:54.611Z,17.10
2022-08-17T20:13:59.087Z,17.00
2022-08-17T20:17:15.215Z,16.90
2022-08-17T20:20:40.996Z,16.80
2022-08-17T20:23:52.023Z,16.80
2022-08-17T20:27:22.973Z,16.80
2022-08-17T20:30:47.051Z,16.60
2022-08-17T20:33:50.996Z,16.50
2022-08-17T20:37:11.022Z,16.40
2022-08-17T20:40:12.025Z,16.30
2022-08-17T20:43:35.768Z,16.10
2022-08-17T20:46:42.960Z,15.90
2022-08-17T20:49:56.062Z,15.80
2022-08-17T20:52:56.989Z,15.70
2022-08-17T20:55:58.013Z,15.60
2022-08-17T20:59:02.675Z,15.40
2022-08-17T21:02:21.064Z,15.40
2022-08-17T21:06:17.219Z,15.30
2022-08-17T21:09:44.020Z,15.20
2022-08-17T21:13:07.006Z,15.10
2022-08-17T21:16:16.998Z,15.00
2022-08-17T21:20:07.723Z,15.00
2022-08-17T21:23:06.270Z,14.90
2022-08-17T21:26:30.792Z,14.70
2022-08-17T21:29:40.529Z,14.50
2022-08-17T21:32:52.104Z,14.40
2022-08-17T21:36:04.041Z,14.30
2022-08-17T21:39:15.010Z,14.20
2022-08-17T21:42:18.169Z,14.10
2022-08-17T21:45:26.105Z,14.00
2022-08-17T21:48:36.028Z,14.00
2022-08-17T21:51:41.045Z,13.90
2022-08-17T21:54:51.040Z,13.80
2022-08-17T21:58:13.649Z,13.80
2022-08-17T22:01:41.140Z,13.80
2022-08-17T22:04:48.077Z,13.80
2022-08-17T22:07:55.177Z,13.70
2022-08-17T22:10:58.071Z,13.60
2022-08-17T22:14:05.268Z,13.50
2022-08-17T22:17:28.031Z,13.50
2022-08-17T22:20:27.090Z,13.50
2022-08-17T22:23:53.105Z,13.60
2022-08-17T22:27:26.176Z,13.70
2022-08-17T22:30:43.074Z,13.70
2022-08-17T22:33:55.044Z,13.60
2022-08-17T22:36:58.316Z,13.50
2022-08-17T22:40:14.073Z,13.40
2022-08-17T22:43:16.081Z,13.40
2022-08-17T22:46:22.062Z,13.30
2022-08-17T22:49:23.051Z,13.30
2022-08-17T22:52:34.047Z,13.20
2022-08-17T22:55:53.131Z,13.30
2022-08-17T22:59:26.101Z,13.30
2022-08-17T23:02:55.139Z,13.30
2022-08-17T23:06:00.086Z,13.50
2022-08-17T23:09:04.154Z,13.50
2022-08-17T23:12:08.152Z,13.60
2022-08-17T23:15:17.120Z,13.70
2022-08-17T23:18:18.093Z,13.80
2022-08-17T23:21:19.066Z,13.90
2022-08-17T23:24:35.120Z,14.10
2022-08-17T23:27:36.288Z,14.30
2022-08-17T23:30:37.084Z,14.40
2022-08-17T23:33:45.080Z,14.60
2022-08-17T23:36:46.197Z,14.80
2022-08-17T23:39:47.124Z,14.80
2022-08-17T23:42:48.202Z,14.90
2022-08-17T23:45:49.097Z,14.90
2022-08-17T23:48:52.072Z,14.90
2022-08-17T23:51:55.232Z,14.90
2022-08-17T23:55:00.105Z,15.00
2022-08-17T23:58:01.135Z,15.00
